Polar Bear — ZMA2072 — position and weather

sailwx.info

Track history (hours):
 
Tides and Currents Weather Stations Pressure Air Temp Water Temp Dewpoint Dewpoint Depression Visibility Wind Speed Wind Dir Waves Ship Positions

Polar Bear

Last reported at 2014-Sep-29 20:05 UTC. Time now 2014-Oct-23 08:45 UTC.
Position N 49°10' W 123°56'.
Warning: this ship's position is 23 days out of date.

Length 28 m; draft 2.3 m.

Type: Pleasure craft. MMSI: 512172000.

Date/timePositionNaut miles runAvg speedWind from/ knotsBaromVisibWave heightAir tempDewpointWater temp
2014-Sep-29 20:05N 49°10' W 123°56'3 4.8
2014-Sep-29 19:29N 49°09' W 123°52'9 9.2
2014-Sep-29 18:33N 49°02' W 123°44'10 9.5
2014-Sep-29 17:33N 48°54' W 123°37'8 8.2
2014-Sep-29 16:33N 48°46' W 123°34'9 8.5
2014-Sep-29 15:31N 48°41' W 123°23'4 0.6
2014-Sep-29 09:14N 48°37' W 123°22'0 0.0
2014-Sep-29 07:08N 48°37' W 123°22'0 0.0
2014-Sep-29 04:14N 48°37' W 123°22'5 7.9
2014-Sep-29 03:33N 48°32' W 123°19'8 8.0
2014-Sep-29 02:33N 48°24' W 123°18'2 1.9
2014-Sep-29 01:31N 48°24' W 123°21'1 1.0
2014-Sep-29 00:33N 48°24' W 123°22'8 8.1
2014-Sep-28 23:33N 48°19' W 123°31'11 8.0
2014-Sep-28 22:11N 48°22' W 123°47'0 0.0
2014-Sep-28 21:11N 48°22' W 123°47'0 0.1
2014-Sep-28 20:29N 48°22' W 123°47'0 0.0
2014-Sep-28 19:23N 48°22' W 123°47'0 0.0
2014-Sep-28 18:08N 48°22' W 123°47'0 0.0
2014-Sep-28 08:20N 48°22' W 123°47'0 0.0
2014-Sep-28 07:29N 48°22' W 123°47'0 0.0
2014-Sep-27 23:33N 48°22' W 123°47'4 1.8
2014-Sep-27 21:28N 48°21' W 123°52'6 6.3
2014-Sep-27 20:33N 48°21' W 123°44'8 7.6
2014-Sep-27 19:33N 48°18' W 123°33'8 7.9
2014-Sep-27 18:33N 48°24' W 123°25'2 1.8
2014-Sep-27 17:20N 48°25' W 123°22'0 0.5
2014-Sep-27 16:25N 48°25' W 123°23'7 8.3
2014-Sep-27 15:33N 48°18' W 123°24'9 9.3
2014-Sep-27 14:33N 48°09' W 123°24'0 0.0
2014-Sep-27 00:33N 48°09' W 123°24'2310.5
2014-Sep-26 22:21N 48°19' W 123°55'911.1
2014-Sep-26 21:33N 48°23' W 124°07'1010.2
2014-Sep-26 20:33N 48°27' W 124°21'1010.1
2014-Sep-26 19:34N 48°31' W 124°35'1010.4
2014-Sep-26 18:34N 48°36' W 124°49'9 9.1
2014-Sep-26 17:33N 48°39' W 125°02'8 8.6
2014-Sep-26 16:33N 48°44' W 125°13'9 8.7
2014-Sep-26 15:34N 48°48' W 125°24'9 9.1
2014-Sep-26 14:33N 48°54' W 125°35'9 9.2
2014-Sep-26 13:33N 48°59' W 125°46'9 8.7
2014-Sep-26 12:33N 49°06' W 125°55'3 2.9
2014-Sep-26 11:29N 49°09' W 125°54'0 0.0
2014-Sep-26 10:17N 49°09' W 125°54'0 0.0
2014-Sep-26 09:05N 49°09' W 125°54'0 0.0
2014-Sep-25 13:23N 49°09' W 125°54'0 0.0
2014-Sep-25 11:05N 49°09' W 125°54'0 0.0
2014-Sep-24 15:11N 49°09' W 125°54'0 0.0
2014-Sep-24 12:11N 49°09' W 125°54'0 0.0
2014-Sep-24 00:05N 49°09' W 125°54'0 0.0
2014-Sep-22 20:27N 49°09' W 125°54'4 4.1
2014-Sep-22 19:31N 49°13' W 125°56'2 1.3
2014-Sep-22 18:14N 49°13' W 125°59'0 0.0
2014-Sep-22 17:29N 49°13' W 125°59'0 0.0
2014-Sep-22 15:17N 49°13' W 125°59'14 0.6
2014-Sep-21 15:09N 49°21' W 126°15'2 0.1
2014-Sep-20 23:29N 49°19' W 126°15'11 7.9
2014-Sep-20 22:05N 49°13' W 126°01'4 4.3
2014-Sep-20 21:13N 49°11' W 125°56'2 2.4
2014-Sep-20 20:33N 49°09' W 125°57'2 0.4
2014-Sep-20 15:16N 49°09' W 125°54'0 0.0
2014-Sep-20 14:28N 49°09' W 125°54'0 0.0
2014-Sep-20 13:16N 49°09' W 125°54'0 0.0
2014-Sep-20 12:28N 49°09' W 125°54'0 0.0
2014-Sep-20 11:28N 49°09' W 125°54'  
Track history (hours):
 
Tides and Currents Weather Stations Pressure Air Temp Water Temp Dewpoint Dewpoint Depression Visibility Wind Speed Wind Dir Waves Ship Positions

Polar Bear

Last reported at 2014-Sep-29 20:05 UTC. Time now 2014-Oct-23 08:45 UTC.
Position N 49°10' W 123°56'.
Warning: this ship's position is 23 days out of date.

Length 28 m; draft 2.3 m.

Type: Pleasure craft. MMSI: 512172000.

Date/timePositionNaut miles runAvg speedWind from/ knotsBaromVisibWave heightAir tempDewpointWater temp
2014-Sep-29 20:05N 49°10' W 123°56'3 4.8
2014-Sep-29 19:29N 49°09' W 123°52'9 9.2
2014-Sep-29 18:33N 49°02' W 123°44'10 9.5
2014-Sep-29 17:33N 48°54' W 123°37'8 8.2
2014-Sep-29 16:33N 48°46' W 123°34'9 8.5
2014-Sep-29 15:31N 48°41' W 123°23'4 0.6
2014-Sep-29 09:14N 48°37' W 123°22'0 0.0
2014-Sep-29 07:08N 48°37' W 123°22'0 0.0
2014-Sep-29 04:14N 48°37' W 123°22'5 7.9
2014-Sep-29 03:33N 48°32' W 123°19'8 8.0
2014-Sep-29 02:33N 48°24' W 123°18'2 1.9
2014-Sep-29 01:31N 48°24' W 123°21'1 1.0
2014-Sep-29 00:33N 48°24' W 123°22'8 8.1
2014-Sep-28 23:33N 48°19' W 123°31'11 8.0
2014-Sep-28 22:11N 48°22' W 123°47'0 0.0
2014-Sep-28 21:11N 48°22' W 123°47'0 0.1
2014-Sep-28 20:29N 48°22' W 123°47'0 0.0
2014-Sep-28 19:23N 48°22' W 123°47'0 0.0
2014-Sep-28 18:08N 48°22' W 123°47'0 0.0
2014-Sep-28 08:20N 48°22' W 123°47'0 0.0
2014-Sep-28 07:29N 48°22' W 123°47'0 0.0
2014-Sep-27 23:33N 48°22' W 123°47'4 1.8
2014-Sep-27 21:28N 48°21' W 123°52'6 6.3
2014-Sep-27 20:33N 48°21' W 123°44'8 7.6
2014-Sep-27 19:33N 48°18' W 123°33'8 7.9
2014-Sep-27 18:33N 48°24' W 123°25'2 1.8
2014-Sep-27 17:20N 48°25' W 123°22'0 0.5
2014-Sep-27 16:25N 48°25' W 123°23'7 8.3
2014-Sep-27 15:33N 48°18' W 123°24'9 9.3
2014-Sep-27 14:33N 48°09' W 123°24'0 0.0
2014-Sep-27 00:33N 48°09' W 123°24'2310.5
2014-Sep-26 22:21N 48°19' W 123°55'911.1
2014-Sep-26 21:33N 48°23' W 124°07'1010.2
2014-Sep-26 20:33N 48°27' W 124°21'1010.1
2014-Sep-26 19:34N 48°31' W 124°35'1010.4
2014-Sep-26 18:34N 48°36' W 124°49'9 9.1
2014-Sep-26 17:33N 48°39' W 125°02'8 8.6
2014-Sep-26 16:33N 48°44' W 125°13'9 8.7
2014-Sep-26 15:34N 48°48' W 125°24'9 9.1
2014-Sep-26 14:33N 48°54' W 125°35'9 9.2
2014-Sep-26 13:33N 48°59' W 125°46'9 8.7
2014-Sep-26 12:33N 49°06' W 125°55'3 2.9
2014-Sep-26 11:29N 49°09' W 125°54'0 0.0
2014-Sep-26 10:17N 49°09' W 125°54'0 0.0
2014-Sep-26 09:05N 49°09' W 125°54'0 0.0
2014-Sep-25 13:23N 49°09' W 125°54'0 0.0
2014-Sep-25 11:05N 49°09' W 125°54'0 0.0
2014-Sep-24 15:11N 49°09' W 125°54'0 0.0
2014-Sep-24 12:11N 49°09' W 125°54'0 0.0
2014-Sep-24 00:05N 49°09' W 125°54'0 0.0
2014-Sep-22 20:27N 49°09' W 125°54'4 4.1
2014-Sep-22 19:31N 49°13' W 125°56'2 1.3
2014-Sep-22 18:14N 49°13' W 125°59'0 0.0
2014-Sep-22 17:29N 49°13' W 125°59'0 0.0
2014-Sep-22 15:17N 49°13' W 125°59'14 0.6
2014-Sep-21 15:09N 49°21' W 126°15'2 0.1
2014-Sep-20 23:29N 49°19' W 126°15'11 7.9
2014-Sep-20 22:05N 49°13' W 126°01'4 4.3
2014-Sep-20 21:13N 49°11' W 125°56'2 2.4
2014-Sep-20 20:33N 49°09' W 125°57'2 0.4
2014-Sep-20 15:16N 49°09' W 125°54'0 0.0
2014-Sep-20 14:28N 49°09' W 125°54'0 0.0
2014-Sep-20 13:16N 49°09' W 125°54'0 0.0
2014-Sep-20 12:28N 49°09' W 125°54'0 0.0
2014-Sep-20 11:28N 49°09' W 125°54'  

Dump ship's entire track history